createdAt,value
2017-09-17T00:00:32.203Z,4.40
2017-09-17T00:02:58.424Z,4.10
2017-09-17T00:05:25.360Z,5.03
2017-09-17T00:07:52.287Z,4.90
2017-09-17T00:10:20.743Z,3.83
2017-09-17T00:12:47.076Z,6.60
2017-09-17T00:15:13.637Z,4.87
2017-09-17T00:17:40.534Z,4.70
2017-09-17T00:20:07.446Z,3.70
2017-09-17T00:22:33.607Z,5.40
2017-09-17T00:25:00.506Z,3.87
2017-09-17T00:27:26.702Z,3.27
2017-09-17T00:29:53.198Z,3.50
2017-09-17T00:32:19.381Z,3.33
2017-09-17T00:34:45.617Z,3.80
2017-09-17T00:37:11.802Z,4.60
2017-09-17T00:39:38.014Z,3.77
2017-09-17T00:42:05.872Z,3.10
2017-09-17T00:44:32.029Z,2.60
2017-09-17T00:46:58.190Z,2.93
2017-09-17T00:49:24.354Z,2.83
2017-09-17T00:51:50.543Z,2.83
2017-09-17T00:54:16.775Z,2.53
2017-09-17T00:56:42.966Z,2.57
2017-09-17T00:59:09.163Z,2.50
2017-09-17T01:01:35.390Z,2.67
2017-09-17T01:04:01.552Z,2.23
2017-09-17T01:06:27.774Z,1.60
2017-09-17T01:08:54.714Z,2.20
2017-09-17T01:11:20.922Z,1.40
2017-09-17T01:13:47.134Z,1.60
2017-09-17T01:16:13.306Z,3.10
2017-09-17T01:18:39.483Z,1.70
2017-09-17T01:21:06.431Z,1.70
2017-09-17T01:23:32.980Z,2.93
2017-09-17T01:25:59.195Z,2.17
2017-09-17T01:28:25.386Z,1.87
2017-09-17T01:30:51.575Z,1.80
2017-09-17T01:33:17.747Z,1.60
2017-09-17T01:35:43.929Z,1.80
2017-09-17T01:38:10.082Z,1.80
2017-09-17T01:40:36.235Z,1.53
2017-09-17T01:43:02.402Z,1.60
2017-09-17T01:45:28.565Z,2.10
2017-09-17T01:47:54.731Z,1.63
2017-09-17T01:50:20.946Z,2.00
2017-09-17T01:52:48.801Z,2.67
2017-09-17T01:55:14.965Z,2.87
2017-09-17T01:57:41.137Z,4.10
2017-09-17T02:00:07.686Z,3.57
2017-09-17T02:02:33.846Z,2.63
2017-09-17T02:05:00.922Z,1.73
2017-09-17T02:07:27.394Z,2.20
2017-09-17T02:09:53.581Z,3.30
2017-09-17T02:12:19.783Z,3.30
2017-09-17T02:14:46.418Z,3.90
2017-09-17T02:17:13.319Z,3.90
2017-09-17T02:19:40.239Z,4.73
2017-09-17T02:22:07.166Z,3.57
2017-09-17T02:24:34.791Z,2.87
2017-09-17T02:27:00.976Z,2.67
2017-09-17T02:29:27.514Z,2.00
2017-09-17T02:31:53.703Z,2.17
2017-09-17T02:34:19.867Z,1.70
2017-09-17T02:36:46.433Z,1.87
2017-09-17T02:39:12.615Z,2.00
2017-09-17T02:41:38.826Z,1.73
2017-09-17T02:44:04.998Z,1.83
2017-09-17T02:46:31.194Z,1.30
2017-09-17T02:48:57.365Z,1.40
2017-09-17T02:51:23.553Z,1.53
2017-09-17T02:53:49.721Z,1.93
2017-09-17T02:56:16.286Z,1.63
2017-09-17T02:58:43.190Z,1.73
2017-09-17T03:01:09.431Z,1.50
2017-09-17T03:03:35.638Z,2.03
2017-09-17T03:06:01.833Z,1.57
2017-09-17T03:08:28.102Z,1.30
2017-09-17T03:10:54.318Z,1.70
2017-09-17T03:13:20.518Z,1.90
2017-09-17T03:15:46.690Z,2.00
2017-09-17T03:18:12.858Z,1.40
2017-09-17T03:20:39.021Z,1.77
2017-09-17T03:23:05.926Z,1.53
2017-09-17T03:25:32.105Z,2.10
2017-09-17T03:27:58.286Z,1.90
2017-09-17T03:30:24.488Z,2.07
2017-09-17T03:32:50.630Z,2.50
2017-09-17T03:35:16.802Z,2.90
2017-09-17T03:37:42.982Z,3.17
2017-09-17T03:40:09.187Z,2.90
2017-09-17T03:42:35.360Z,3.80
2017-09-17T03:45:01.546Z,4.43
2017-09-17T03:47:28.462Z,5.33
2017-09-17T03:49:55.362Z,6.47
2017-09-17T03:52:22.314Z,5.63
2017-09-17T03:54:49.213Z,5.90
2017-09-17T03:57:15.363Z,5.00
2017-09-17T03:59:42.922Z,5.93
2017-09-17T04:02:09.849Z,6.63
2017-09-17T04:04:36.826Z,6.00
2017-09-17T04:07:03.719Z,7.10
2017-09-17T04:09:29.911Z,10.23
2017-09-17T04:11:56.434Z,12.10
2017-09-17T04:14:23.014Z,10.67
2017-09-17T04:16:49.183Z,7.50
2017-09-17T04:19:15.347Z,7.33
2017-09-17T04:21:41.877Z,8.23
2017-09-17T04:24:08.094Z,8.20
2017-09-17T04:26:34.632Z,7.13
2017-09-17T04:29:00.786Z,8.10
2017-09-17T04:31:26.944Z,6.87
2017-09-17T04:33:53.122Z,6.90
2017-09-17T04:36:19.299Z,6.90
2017-09-17T04:38:45.456Z,6.20
2017-09-17T04:41:11.601Z,7.23
2017-09-17T04:43:37.802Z,8.20
2017-09-17T04:46:03.963Z,10.53
2017-09-17T04:48:30.140Z,10.50
2017-09-17T04:50:56.318Z,10.53
2017-09-17T04:53:22.498Z,10.40
2017-09-17T04:55:48.666Z,10.20
2017-09-17T04:58:14.832Z,9.83
2017-09-17T05:00:40.994Z,10.90
2017-09-17T05:03:07.133Z,12.57
2017-09-17T05:05:33.290Z,13.00
2017-09-17T05:07:59.498Z,14.10
2017-09-17T05:10:25.650Z,13.87
2017-09-17T05:12:51.832Z,14.37
2017-09-17T05:15:18.022Z,14.30
2017-09-17T05:17:44.185Z,14.47
2017-09-17T05:20:10.350Z,16.20
2017-09-17T05:22:36.527Z,15.00
2017-09-17T05:25:02.708Z,12.80
2017-09-17T05:27:28.874Z,14.20
2017-09-17T05:29:55.093Z,13.07
2017-09-17T05:32:21.293Z,15.00
2017-09-17T05:34:47.493Z,14.90
2017-09-17T05:37:13.667Z,13.77
2017-09-17T05:39:39.824Z,12.17
2017-09-17T05:42:06.013Z,12.40
2017-09-17T05:44:32.910Z,11.13
2017-09-17T05:46:59.099Z,11.10
2017-09-17T05:49:25.998Z,12.07
2017-09-17T05:51:52.148Z,12.20
2017-09-17T05:54:19.058Z,13.33
2017-09-17T05:56:45.282Z,14.63
2017-09-17T05:59:12.228Z,12.40
2017-09-17T06:01:38.734Z,11.67
2017-09-17T06:04:04.907Z,11.23
2017-09-17T06:06:31.063Z,10.30
2017-09-17T06:08:57.295Z,9.33
2017-09-17T06:11:24.218Z,9.30
2017-09-17T06:13:51.139Z,10.27
2017-09-17T06:16:17.333Z,9.63
2017-09-17T06:18:44.247Z,10.17
2017-09-17T06:21:10.396Z,11.50
2017-09-17T06:23:37.116Z,10.43
2017-09-17T06:26:03.264Z,11.40
2017-09-17T06:28:29.411Z,11.13
2017-09-17T06:30:55.594Z,11.53
2017-09-17T06:33:21.767Z,12.23
2017-09-17T06:35:47.943Z,12.47
2017-09-17T06:38:14.141Z,10.60
2017-09-17T06:40:40.284Z,10.43
2017-09-17T06:43:06.856Z,10.70
2017-09-17T06:45:33.043Z,10.67
2017-09-17T06:47:59.222Z,10.70
2017-09-17T06:50:25.410Z,10.40
2017-09-17T06:52:52.082Z,11.80
2017-09-17T06:55:18.292Z,10.57
2017-09-17T06:57:44.427Z,10.83
2017-09-17T07:00:10.645Z,10.70
2017-09-17T07:02:37.606Z,11.20
2017-09-17T07:05:03.800Z,10.77
2017-09-17T07:07:29.967Z,10.83
2017-09-17T07:09:56.940Z,12.60
2017-09-17T07:12:23.171Z,13.27
2017-09-17T07:14:49.735Z,14.77
2017-09-17T07:17:15.938Z,12.57
2017-09-17T07:19:42.155Z,13.30
2017-09-17T07:22:08.341Z,12.57
2017-09-17T07:24:35.271Z,11.53
2017-09-17T07:27:01.508Z,12.70
2017-09-17T07:29:27.647Z,12.20
2017-09-17T07:31:53.807Z,13.13
2017-09-17T07:34:19.996Z,12.53
2017-09-17T07:36:46.132Z,12.20
2017-09-17T07:39:13.081Z,13.20
2017-09-17T07:41:39.219Z,11.93
2017-09-17T07:44:05.399Z,12.13
2017-09-17T07:46:31.560Z,11.03
2017-09-17T07:48:57.741Z,12.50
2017-09-17T07:51:23.983Z,11.67
2017-09-17T07:53:50.931Z,11.03
2017-09-17T07:56:17.081Z,12.53
2017-09-17T07:58:43.249Z,14.73
2017-09-17T08:01:10.167Z,12.80
2017-09-17T08:03:37.091Z,16.00
2017-09-17T08:06:03.289Z,10.30
2017-09-17T08:08:30.241Z,15.30
2017-09-17T08:10:56.822Z,13.47
2017-09-17T08:13:22.991Z,13.53
2017-09-17T08:15:49.175Z,12.73
2017-09-17T08:18:15.370Z,13.17
2017-09-17T08:20:41.539Z,13.03
2017-09-17T08:23:08.501Z,16.70
2017-09-17T08:25:34.694Z,17.00
2017-09-17T08:28:01.194Z,17.00
2017-09-17T08:30:27.424Z,17.60
2017-09-17T08:32:53.573Z,18.53
2017-09-17T08:35:20.119Z,18.37
2017-09-17T08:37:46.765Z,21.20
2017-09-17T08:40:13.679Z,20.57
2017-09-17T08:42:40.267Z,24.17
2017-09-17T08:45:06.818Z,22.93
2017-09-17T08:47:33.354Z,21.10
2017-09-17T08:49:59.523Z,20.20
2017-09-17T08:52:25.753Z,17.67
2017-09-17T08:54:51.941Z,17.30
2017-09-17T08:57:18.143Z,16.10
2017-09-17T08:59:44.296Z,16.70
2017-09-17T09:02:10.880Z,16.90
2017-09-17T09:04:37.094Z,17.83
2017-09-17T09:07:03.231Z,17.87
2017-09-17T09:09:30.147Z,18.80
2017-09-17T09:11:56.358Z,17.50
2017-09-17T09:14:22.567Z,16.67
2017-09-17T09:16:48.766Z,17.13
2017-09-17T09:19:14.922Z,16.47
2017-09-17T09:21:41.200Z,16.30
2017-09-17T09:24:07.591Z,14.33
2017-09-17T09:26:33.799Z,15.53
2017-09-17T09:29:00.049Z,17.10
2017-09-17T09:31:27.352Z,17.97
2017-09-17T09:33:53.559Z,17.10
2017-09-17T09:36:19.763Z,16.50
2017-09-17T09:38:46.313Z,18.73
2017-09-17T09:41:12.900Z,17.83
2017-09-17T09:43:39.170Z,15.20
2017-09-17T09:46:06.087Z,14.40
2017-09-17T09:48:32.254Z,14.53
2017-09-17T09:50:58.405Z,12.50
2017-09-17T09:53:24.558Z,13.90
2017-09-17T09:55:51.475Z,13.40
2017-09-17T09:58:17.710Z,12.70
2017-09-17T10:00:43.882Z,7.10
2017-09-17T10:03:10.813Z,11.60
2017-09-17T10:05:37.347Z,10.63
2017-09-17T10:08:04.295Z,11.33
2017-09-17T10:10:30.866Z,9.73
2017-09-17T10:12:57.223Z,9.57
2017-09-17T10:15:23.634Z,13.90
2017-09-17T10:17:49.851Z,13.57
2017-09-17T10:20:16.806Z,13.33
2017-09-17T10:22:43.321Z,11.40
2017-09-17T10:25:09.543Z,10.50
2017-09-17T10:27:36.508Z,11.00
2017-09-17T10:30:02.797Z,8.27
2017-09-17T10:32:29.158Z,8.57
2017-09-17T10:34:55.344Z,6.17
2017-09-17T10:37:21.526Z,5.30
2017-09-17T10:39:47.757Z,5.83
2017-09-17T10:42:13.998Z,6.60
2017-09-17T10:44:40.914Z,5.77
2017-09-17T10:47:07.083Z,5.47
2017-09-17T10:49:33.272Z,5.30
2017-09-17T10:51:59.571Z,6.23
2017-09-17T10:54:25.770Z,5.47
2017-09-17T10:56:52.761Z,4.77
2017-09-17T10:59:18.966Z,5.93
2017-09-17T11:01:45.125Z,5.33
2017-09-17T11:04:11.371Z,6.07
2017-09-17T11:06:37.529Z,5.90
2017-09-17T11:09:03.711Z,5.00
2017-09-17T11:11:29.953Z,4.50
2017-09-17T11:13:56.135Z,4.17
2017-09-17T11:16:22.323Z,3.67
2017-09-17T11:18:48.526Z,4.93
2017-09-17T11:21:14.724Z,4.30
2017-09-17T11:23:40.884Z,4.27
2017-09-17T11:26:07.798Z,3.80
2017-09-17T11:28:34.685Z,3.20
2017-09-17T11:31:01.270Z,4.20
2017-09-17T11:33:27.504Z,3.47
2017-09-17T11:35:57.106Z,8.97
2017-09-17T11:38:24.068Z,3.87
2017-09-17T11:40:57.503Z,3.50
2017-09-17T11:43:23.655Z,2.80
2017-09-17T11:45:49.844Z,2.57
2017-09-17T11:48:16.055Z,2.23
2017-09-17T11:50:42.219Z,2.40
2017-09-17T11:53:11.235Z,2.40
2017-09-17T11:55:37.427Z,2.77
2017-09-17T11:58:03.708Z,3.00
2017-09-17T12:00:30.607Z,3.20
2017-09-17T12:02:56.791Z,2.73
2017-09-17T12:05:23.011Z,2.53
2017-09-17T12:07:49.244Z,2.20
2017-09-17T12:10:15.532Z,2.90
2017-09-17T12:12:41.720Z,2.37
2017-09-17T12:15:07.981Z,2.30
2017-09-17T12:17:34.865Z,3.00
2017-09-17T12:20:02.118Z,5.53
2017-09-17T12:22:28.312Z,1.30
2017-09-17T12:24:54.662Z,1.53
2017-09-17T12:27:20.956Z,2.00
2017-09-17T12:29:47.157Z,2.70
2017-09-17T12:32:13.439Z,1.70
2017-09-17T12:34:39.629Z,1.90
2017-09-17T12:37:05.825Z,3.57
2017-09-17T12:39:32.020Z,2.30
2017-09-17T12:41:58.650Z,1.73
2017-09-17T12:44:25.158Z,1.80
2017-09-17T12:46:51.349Z,2.40
2017-09-17T12:49:17.554Z,1.53
2017-09-17T12:51:43.753Z,1.17
2017-09-17T12:54:10.662Z,1.17
2017-09-17T12:56:37.007Z,1.17
2017-09-17T12:59:03.202Z,2.60
2017-09-17T13:01:29.797Z,1.33
2017-09-17T13:03:56.031Z,1.70
2017-09-17T13:06:22.386Z,1.30
2017-09-17T13:08:49.306Z,1.23
2017-09-17T13:11:15.602Z,1.00
2017-09-17T13:13:41.819Z,2.00
2017-09-17T13:16:08.053Z,1.70
2017-09-17T13:18:34.239Z,1.20
2017-09-17T13:21:00.565Z,1.43
2017-09-17T13:23:26.802Z,1.40
2017-09-17T13:25:53.352Z,1.30
2017-09-17T13:28:20.243Z,2.43
2017-09-17T13:30:48.123Z,4.40
2017-09-17T13:33:15.074Z,2.00
2017-09-17T13:35:41.237Z,1.57
2017-09-17T13:38:07.450Z,1.23
2017-09-17T13:40:34.385Z,0.80
2017-09-17T13:43:00.660Z,1.53
2017-09-17T13:45:26.876Z,1.10
2017-09-17T13:47:53.099Z,0.90
2017-09-17T13:50:19.295Z,1.47
2017-09-17T13:52:45.464Z,1.37
2017-09-17T13:55:12.340Z,1.13
2017-09-17T13:57:38.552Z,2.60
2017-09-17T14:00:05.074Z,1.37
2017-09-17T14:05:31.092Z,1.70
2017-09-17T14:07:58.061Z,1.40
2017-09-17T14:10:25.079Z,1.83
2017-09-17T14:12:51.306Z,1.30
2017-09-17T14:15:17.498Z,2.10
2017-09-17T14:17:43.771Z,1.07
2017-09-17T14:20:09.958Z,1.20
2017-09-17T14:22:36.208Z,1.30
2017-09-17T14:25:02.415Z,1.63
2017-09-17T14:27:28.610Z,1.50
2017-09-17T14:29:54.816Z,0.93
2017-09-17T14:32:22.084Z,1.17
2017-09-17T14:34:48.243Z,1.27
2017-09-17T14:37:15.151Z,1.77
2017-09-17T14:39:41.306Z,1.30
2017-09-17T14:42:09.037Z,1.50
2017-09-17T14:44:35.379Z,0.93
2017-09-17T14:47:01.587Z,1.10
2017-09-17T14:49:27.792Z,1.13
2017-09-17T14:51:53.962Z,1.00
2017-09-17T14:54:20.495Z,1.37
2017-09-17T14:56:46.692Z,1.20
2017-09-17T14:59:13.290Z,1.97
2017-09-17T15:01:40.218Z,1.30
2017-09-17T15:04:07.515Z,2.20
2017-09-17T15:06:34.069Z,1.27
2017-09-17T15:09:00.271Z,1.50
2017-09-17T15:11:26.465Z,1.10
2017-09-17T15:13:52.645Z,1.50
2017-09-17T15:16:18.835Z,1.97
2017-09-17T15:18:45.014Z,2.53
2017-09-17T15:21:11.165Z,1.50
2017-09-17T15:23:37.357Z,1.30
2017-09-17T15:26:03.602Z,1.70
2017-09-17T15:28:29.812Z,3.90
2017-09-17T15:30:55.991Z,2.03
2017-09-17T15:33:22.662Z,1.87
2017-09-17T15:35:49.033Z,2.43
2017-09-17T15:38:15.965Z,1.87
2017-09-17T15:40:42.760Z,1.97
2017-09-17T15:43:08.998Z,1.53
2017-09-17T15:45:36.862Z,2.67
2017-09-17T15:48:03.063Z,55.77
2017-09-17T15:50:29.660Z,83.80
2017-09-17T15:52:55.991Z,42.47
2017-09-17T15:55:22.255Z,2.30
2017-09-17T15:57:48.477Z,1.70
2017-09-17T16:00:16.370Z,2.37
2017-09-17T16:02:43.315Z,2.27
2017-09-17T16:05:09.487Z,2.03
2017-09-17T16:07:35.659Z,5.13
2017-09-17T16:10:01.863Z,2.00
2017-09-17T16:12:28.040Z,2.10
2017-09-17T16:14:54.596Z,2.23
2017-09-17T16:17:20.805Z,34.93
2017-09-17T16:19:47.735Z,8.47
2017-09-17T16:22:13.946Z,2.90
2017-09-17T16:24:40.915Z,1.73
2017-09-17T16:27:07.081Z,1.80
2017-09-17T16:29:33.313Z,2.77
2017-09-17T16:31:59.517Z,1.77
2017-09-17T16:34:25.672Z,1.50
2017-09-17T16:36:52.990Z,1.67
2017-09-17T16:39:19.176Z,2.07
2017-09-17T16:41:45.325Z,2.10
2017-09-17T16:44:12.319Z,2.40
2017-09-17T16:46:39.661Z,2.00
2017-09-17T16:49:05.845Z,2.13
2017-09-17T16:51:31.993Z,1.90
2017-09-17T16:53:58.192Z,1.57
2017-09-17T16:56:24.386Z,1.50
2017-09-17T16:58:50.634Z,1.90
2017-09-17T17:01:16.879Z,1.80
2017-09-17T17:03:43.851Z,1.90
2017-09-17T17:06:10.820Z,1.43
2017-09-17T17:08:37.027Z,1.80
2017-09-17T17:11:03.216Z,2.20
2017-09-17T17:13:30.195Z,1.83
2017-09-17T17:15:56.381Z,1.87
2017-09-17T17:18:22.641Z,1.77
2017-09-17T17:20:49.576Z,1.90
2017-09-17T17:23:15.772Z,1.87
2017-09-17T17:25:41.954Z,1.83
2017-09-17T17:28:08.122Z,1.93
2017-09-17T17:30:34.327Z,2.00
2017-09-17T17:33:00.523Z,2.23
2017-09-17T17:35:26.718Z,3.37
2017-09-17T17:37:52.874Z,2.90
2017-09-17T17:40:19.065Z,2.57
2017-09-17T17:42:45.302Z,3.10
2017-09-17T17:45:11.546Z,3.10
2017-09-17T17:47:37.742Z,2.50
2017-09-17T17:50:03.910Z,2.37
2017-09-17T17:52:30.866Z,2.53
2017-09-17T17:54:57.042Z,2.40
2017-09-17T17:57:23.228Z,2.20
2017-09-17T17:59:49.435Z,2.43
2017-09-17T18:02:15.619Z,2.23
2017-09-17T18:04:41.790Z,3.00
2017-09-17T18:07:08.351Z,2.87
2017-09-17T18:09:34.567Z,2.93
2017-09-17T18:12:00.752Z,3.03
2017-09-17T18:14:26.984Z,3.07
2017-09-17T18:16:53.160Z,3.33
2017-09-17T18:19:19.371Z,4.30
2017-09-17T18:21:45.591Z,3.50
2017-09-17T18:24:11.777Z,2.47
2017-09-17T18:26:37.944Z,2.50
2017-09-17T18:29:04.847Z,2.37
2017-09-17T18:31:31.039Z,2.70
2017-09-17T18:33:57.234Z,2.20
2017-09-17T18:36:23.415Z,2.40
2017-09-17T18:38:49.599Z,2.33
2017-09-17T18:41:15.783Z,2.03
2017-09-17T18:43:42.744Z,2.20
2017-09-17T18:46:08.949Z,2.20
2017-09-17T18:48:35.107Z,2.90
2017-09-17T18:51:07.230Z,2.30
2017-09-17T18:53:33.759Z,2.40
2017-09-17T18:56:00.719Z,2.53
2017-09-17T18:58:26.913Z,2.10
2017-09-17T19:00:53.109Z,2.77
2017-09-17T19:03:19.282Z,2.00
2017-09-17T19:05:45.513Z,2.03
2017-09-17T19:08:11.804Z,2.10
2017-09-17T19:10:38.740Z,2.50
2017-09-17T19:13:05.022Z,2.30
2017-09-17T19:15:31.882Z,2.67
2017-09-17T19:17:58.104Z,2.63
2017-09-17T19:20:25.575Z,2.07
2017-09-17T19:22:52.637Z,2.00
2017-09-17T19:25:19.167Z,2.17
2017-09-17T19:27:46.101Z,2.40
2017-09-17T19:30:12.271Z,1.90
2017-09-17T19:32:38.500Z,2.10
2017-09-17T19:35:04.719Z,1.50
2017-09-17T19:37:31.312Z,2.43
2017-09-17T19:39:57.499Z,2.10
2017-09-17T19:42:24.647Z,2.60
2017-09-17T19:44:50.857Z,2.50
2017-09-17T19:47:17.084Z,2.10
2017-09-17T19:49:43.271Z,1.97
2017-09-17T19:52:09.544Z,2.00
2017-09-17T19:54:35.833Z,1.93
2017-09-17T19:57:02.062Z,2.83
2017-09-17T19:59:28.269Z,8.80
2017-09-17T20:01:54.498Z,5.70
2017-09-17T20:04:20.718Z,3.97
2017-09-17T20:06:47.695Z,3.77
2017-09-17T20:09:13.882Z,2.30
2017-09-17T20:11:40.120Z,1.80
2017-09-17T20:14:06.724Z,2.47
2017-09-17T20:16:32.908Z,2.43
2017-09-17T20:18:59.174Z,2.53
2017-09-17T20:21:25.379Z,2.20
2017-09-17T20:23:51.600Z,2.30
2017-09-17T20:26:17.784Z,3.00
2017-09-17T20:28:44.074Z,2.80
2017-09-17T20:31:10.259Z,2.30
2017-09-17T20:33:36.816Z,2.70
2017-09-17T20:36:03.005Z,2.60
2017-09-17T20:38:29.178Z,2.27
2017-09-17T20:40:55.773Z,2.57
2017-09-17T20:43:22.352Z,2.13
2017-09-17T20:45:48.571Z,2.57
2017-09-17T20:48:14.765Z,2.17
2017-09-17T20:50:40.920Z,2.17
2017-09-17T20:53:07.107Z,2.10
2017-09-17T20:55:33.259Z,2.20
2017-09-17T20:57:59.455Z,2.83
2017-09-17T21:00:25.672Z,3.10
2017-09-17T21:02:51.842Z,2.37
2017-09-17T21:05:18.044Z,2.33
2017-09-17T21:07:44.982Z,2.33
2017-09-17T21:10:11.663Z,1.93
2017-09-17T21:12:37.842Z,2.97
2017-09-17T21:15:04.284Z,2.60
2017-09-17T21:17:30.452Z,2.80
2017-09-17T21:19:57.000Z,2.73
2017-09-17T21:22:23.196Z,3.70
2017-09-17T21:24:52.128Z,2.80
2017-09-17T21:27:18.393Z,2.60
2017-09-17T21:29:44.577Z,3.30
2017-09-17T21:32:10.742Z,2.80
2017-09-17T21:34:36.862Z,2.57
2017-09-17T21:37:03.062Z,2.90
2017-09-17T21:39:29.281Z,2.33
2017-09-17T21:41:55.468Z,2.40
2017-09-17T21:44:21.634Z,2.63
2017-09-17T21:46:47.820Z,2.70
2017-09-17T21:49:14.014Z,2.27
2017-09-17T21:51:40.920Z,2.17
2017-09-17T21:54:07.079Z,2.50
2017-09-17T21:56:33.269Z,2.23
2017-09-17T21:58:59.502Z,2.10
2017-09-17T22:01:25.701Z,2.50
2017-09-17T22:03:51.875Z,2.70
2017-09-17T22:06:18.098Z,2.30
2017-09-17T22:08:46.858Z,1.73
2017-09-17T22:11:13.029Z,2.10
2017-09-17T22:13:39.533Z,2.30
2017-09-17T22:16:05.782Z,2.20
2017-09-17T22:18:32.140Z,2.20
2017-09-17T22:20:58.283Z,2.40
2017-09-17T22:23:24.472Z,1.73
2017-09-17T22:25:50.798Z,2.07
2017-09-17T22:28:16.996Z,2.03
2017-09-17T22:30:43.195Z,2.60
2017-09-17T22:33:09.341Z,2.00
2017-09-17T22:35:35.492Z,1.93
2017-09-17T22:38:01.680Z,1.60
2017-09-17T22:40:27.859Z,2.03
2017-09-17T22:42:54.037Z,2.27
2017-09-17T22:45:20.284Z,2.20
2017-09-17T22:47:46.865Z,1.87
2017-09-17T22:50:13.027Z,1.57
2017-09-17T22:52:40.399Z,1.93
2017-09-17T22:55:06.682Z,1.53
2017-09-17T22:57:32.855Z,2.03
2017-09-17T22:59:59.051Z,1.50
2017-09-17T23:02:25.231Z,1.63
2017-09-17T23:04:51.434Z,1.57
2017-09-17T23:07:17.614Z,1.53
2017-09-17T23:09:43.768Z,1.90
2017-09-17T23:12:09.982Z,1.93
2017-09-17T23:14:36.162Z,2.07
2017-09-17T23:17:02.394Z,2.27
2017-09-17T23:19:29.331Z,1.47
2017-09-17T23:21:55.542Z,1.37
2017-09-17T23:24:21.737Z,1.20
2017-09-17T23:26:48.306Z,2.40
2017-09-17T23:29:14.512Z,2.13
2017-09-17T23:31:40.700Z,2.20
2017-09-17T23:34:06.902Z,2.07
2017-09-17T23:36:34.299Z,2.03
2017-09-17T23:39:00.684Z,2.40
2017-09-17T23:41:26.841Z,2.90
2017-09-17T23:43:53.001Z,1.80
2017-09-17T23:46:19.178Z,1.93
2017-09-17T23:48:45.716Z,2.37
2017-09-17T23:51:11.923Z,2.80
2017-09-17T23:53:43.991Z,2.80
2017-09-17T23:56:10.654Z,2.70
2017-09-17T23:58:37.210Z,2.90
